Time;durP1;ratioP1;P1;durP2;ratioP2;P2;SDS_P1;SDS_P2;PMS_P1;PMS_P2;Temp;Humidity;BMP_temperature;BMP_pressure;BME280_temperature;BME280_humidity;BME280_pressure;Samples;Min_cycle;Max_cycle;Signal;HPM_P1;HPM_P2
2022/10/10 00:01:18;;;;;;;6.83;3.90;;;;;;;4.58;81.00;101454.06;1656343;86;21054;-74
2022/10/10 00:03:46;;;;;;;7.43;3.97;;;;;;;4.56;81.15;101456.64;1675669;85;21051;-73
2022/10/10 00:06:15;;;;;;;7.63;3.60;;;;;;;4.54;81.15;101458.36;1656427;86;21062;-73
2022/10/10 00:08:43;;;;;;;9.27;3.80;;;;;;;4.54;81.22;101455.76;1675691;85;21995;-73
2022/10/10 00:11:13;;;;;;;7.17;3.93;;;;;;;4.56;81.41;101448.85;1656269;86;21039;-73
2022/10/10 00:13:40;;;;;;;5.83;3.80;;;;;;;4.58;81.71;101444.55;1685252;84;21510;-72
2022/10/10 00:16:08;;;;;;;6.20;3.60;;;;;;;4.58;81.38;101441.95;1675862;85;21038;-71
2022/10/10 00:18:37;;;;;;;7.97;3.40;;;;;;;4.53;81.40;101431.97;1656141;86;21106;-72
2022/10/10 00:21:05;;;;;;;4.73;2.77;;;;;;;4.56;81.47;101430.67;1665127;85;21523;-71
2022/10/10 00:23:32;;;;;;;7.13;3.23;;;;;;;4.55;81.39;101426.36;1650159;85;21034;-72
2022/10/10 00:26:00;;;;;;;6.83;3.10;;;;;;;4.54;81.55;101425.04;1650215;85;21022;-71
2022/10/10 00:28:27;;;;;;;5.63;3.10;;;;;;;4.52;81.52;101415.97;1650184;85;21028;-72
2022/10/10 00:30:54;;;;;;;5.73;3.20;;;;;;;4.50;81.51;101409.89;1650834;85;21037;-72
2022/10/10 00:33:21;;;;;;;7.80;2.97;;;;;;;4.49;81.50;101405.56;1650266;85;21131;-73
2022/10/10 00:35:49;;;;;;;5.33;2.77;;;;;;;4.48;81.74;101402.52;1650338;85;21038;-72
2022/10/10 00:38:16;;;;;;;5.47;2.77;;;;;;;4.49;81.70;101402.97;1650285;85;21524;-75
2022/10/10 00:40:50;;;;;;;5.83;2.90;;;;;;;4.51;81.81;101402.96;1650443;85;21505;-72
2022/10/10 00:43:18;;;;;;;6.30;2.77;;;;;;;4.50;81.99;101399.50;1632852;85;21586;-72
2022/10/10 00:45:47;;;;;;;6.77;3.20;;;;;;;4.51;81.94;101400.36;1641052;85;21130;-72
2022/10/10 00:48:19;;;;;;;5.80;2.97;;;;;;;4.47;81.67;101399.06;1622912;87;21048;-71
2022/10/10 00:50:51;;;;;;;5.60;3.43;;;;;;;4.42;81.65;101399.47;1645979;85;21479;-75
2022/10/10 00:53:23;;;;;;;6.70;3.80;;;;;;;4.40;81.69;101400.31;1645609;85;21545;-75
2022/10/10 00:55:52;;;;;;;7.83;3.87;;;;;;;4.45;82.94;101395.58;1646006;85;21053;-72
2022/10/10 00:58:21;;;;;;;6.53;3.80;;;;;;;4.60;82.99;101390.90;1645685;85;21504;-76
2022/10/10 01:00:48;;;;;;;7.80;3.77;;;;;;;4.61;82.66;101382.67;1645972;85;21091;-71
2022/10/10 01:03:14;;;;;;;6.53;3.53;;;;;;;4.58;82.32;101383.52;1645808;85;21046;-71
2022/10/10 01:05:44;;;;;;;7.07;4.00;;;;;;;4.57;82.25;101388.70;1645940;85;21038;-72
2022/10/10 01:08:13;;;;;;;8.50;3.52;;;;;;;4.56;82.39;101378.75;1645902;85;21595;-71
2022/10/10 01:10:51;;;;;;;8.10;3.47;;;;;;;4.58;82.37;101378.77;1645759;85;21288;-71
2022/10/10 01:13:32;;;;;;;5.33;3.20;;;;;;;4.54;82.13;101374.41;1644562;85;21122;-71
2022/10/10 01:16:10;;;;;;;4.70;3.60;;;;;;;4.51;82.04;101369.21;1645723;85;21051;-71
2022/10/10 01:18:58;;;;;;;6.53;3.53;;;;;;;4.46;81.97;101370.08;1566518;90;21096;-73
2022/10/10 01:21:33;;;;;;;6.13;3.33;;;;;;;4.44;82.00;101361.41;1566768;90;21084;-76
2022/10/10 01:24:31;;;;;;;6.53;3.20;;;;;;;4.41;82.02;101356.64;1566391;90;21133;-72
2022/10/10 01:27:27;;;;;;;8.60;3.60;;;;;;;4.37;81.98;101356.19;1566497;90;21111;-72
2022/10/10 01:29:58;;;;;;;6.03;3.10;;;;;;;4.36;82.23;101357.91;1566512;90;21104;-72
2022/10/10 01:32:58;;;;;;;6.60;3.70;;;;;;;4.35;82.16;101355.30;1563438;90;21632;-76
2022/10/10 01:35:32;;;;;;;6.10;3.13;;;;;;;4.32;82.25;101349.66;1563248;90;21630;-73
2022/10/10 01:38:32;;;;;;;6.00;3.13;;;;;;;4.32;82.36;101344.47;1566721;90;21160;-72
2022/10/10 01:41:15;;;;;;;5.13;3.10;;;;;;;4.31;82.32;101342.75;1566078;90;21120;-72
2022/10/10 01:43:42;;;;;;;5.83;3.27;;;;;;;4.28;82.48;101344.04;1566784;90;21578;-72
2022/10/10 01:46:16;;;;;;;6.60;3.37;;;;;;;4.34;82.97;101332.81;1563874;90;21152;-72
2022/10/10 01:48:49;;;;;;;5.27;3.47;;;;;;;4.35;82.88;101326.75;1591888;88;21758;-72
2022/10/10 01:51:42;;;;;;;8.70;3.60;;;;;;;4.34;82.68;101328.48;1570464;89;21990;-73
2022/10/10 01:54:32;;;;;;;6.93;3.77;;;;;;;4.32;82.84;101329.34;1570289;89;21112;-76
2022/10/10 01:57:21;;;;;;;6.83;3.62;;;;;;;4.36;83.08;101325.91;1650691;85;21511;-74
2022/10/10 02:00:11;;;;;;;5.60;3.53;;;;;;;4.40;83.19;101314.22;1654445;85;20992;-72
2022/10/10 02:03:10;;;;;;;6.15;4.00;;;;;;;4.40;83.18;101314.22;1654535;85;21537;-76
2022/10/10 02:05:58;;;;;;;6.53;3.77;;;;;;;4.42;83.11;101312.50;1654538;85;21232;-72
2022/10/10 02:08:33;;;;;;;8.47;3.50;;;;;;;4.40;82.97;101310.77;1654641;85;21011;-72
2022/10/10 02:11:10;;;;;;;7.33;3.73;;;;;;;4.39;82.80;101307.74;1647293;85;21075;-72
2022/10/10 02:13:48;;;;;;;7.27;3.90;;;;;;;4.37;82.86;101304.27;1654458;85;21107;-71
2022/10/10 02:16:23;;;;;;;6.67;3.80;;;;;;;4.34;82.74;101302.53;1654432;85;21086;-71
2022/10/10 02:18:52;;;;;;;6.13;4.10;;;;;;;4.33;82.92;101288.27;1654843;85;21457;-72
2022/10/10 02:21:20;;;;;;;5.80;3.90;;;;;;;4.33;82.90;101297.35;1654483;85;21051;-72
2022/10/10 02:23:51;;;;;;;6.60;3.50;;;;;;;4.31;82.99;101291.28;1654788;85;21034;-75
2022/10/10 02:26:20;;;;;;;5.80;3.17;;;;;;;4.31;83.04;101293.88;1654542;85;21113;-72
2022/10/10 02:28:58;;;;;;;7.23;3.90;;;;;;;4.31;83.22;101286.09;1654747;85;21334;-72
2022/10/10 02:31:51;;;;;;;7.07;3.57;;;;;;;4.33;83.30;101281.78;1654639;85;21572;-72
2022/10/10 02:34:26;;;;;;;5.97;3.13;;;;;;;4.32;83.24;101281.33;1654650;85;21556;-74
2022/10/10 02:37:09;;;;;;;6.97;3.50;;;;;;;4.30;83.16;101273.98;1654543;85;22060;-76
2022/10/10 02:39:42;;;;;;;6.53;3.53;;;;;;;4.29;83.30;101270.94;1654829;85;21025;-72
2022/10/10 02:42:13;;;;;;;5.80;3.43;;;;;;;4.29;83.40;101274.83;1654683;85;21004;-72
2022/10/10 02:44:41;;;;;;;5.97;3.87;;;;;;;4.30;83.63;101268.36;1654514;85;21780;-76
2022/10/10 02:47:08;;;;;;;6.60;3.90;;;;;;;4.32;83.98;101265.75;1666656;85;21001;-75
2022/10/10 02:49:35;;;;;;;9.07;5.03;;;;;;;4.35;84.19;101270.54;1669418;85;21043;-71
2022/10/10 02:52:03;;;;;;;9.03;5.53;;;;;;;4.43;84.79;101264.94;1669382;85;21000;-75
2022/10/10 02:54:30;;;;;;;11.80;6.30;;;;;;;4.64;86.11;101258.89;1669346;85;21087;-72
2022/10/10 02:56:58;;;;;;;12.07;6.73;;;;;;;4.90;86.75;101259.33;1669478;85;21154;-72
2022/10/10 02:59:25;;;;;;;12.37;5.73;;;;;;;5.13;86.99;101260.64;1669292;85;21019;-75
2022/10/10 03:01:52;;;;;;;18.53;6.00;;;;;;;5.33;86.87;101259.31;1669525;85;21083;-73
2022/10/10 03:04:19;;;;;;;11.57;6.17;;;;;;;5.50;86.81;101249.73;1669436;85;21071;-72
2022/10/10 03:06:46;;;;;;;11.93;6.13;;;;;;;5.66;86.58;101254.47;1669488;85;21532;-76
2022/10/10 03:09:13;;;;;;;13.10;5.80;;;;;;;5.81;86.45;101254.39;1669601;85;21126;-72
2022/10/10 03:11:40;;;;;;;11.30;6.20;;;;;;;5.95;86.19;101249.17;1669320;85;21050;-72
2022/10/10 03:14:07;;;;;;;12.53;5.80;;;;;;;6.07;86.21;101250.87;1669379;85;21039;-74
2022/10/10 03:16:34;;;;;;;10.00;5.20;;;;;;;6.19;86.00;101245.59;1669473;85;21040;-72
2022/10/10 03:19:02;;;;;;;8.33;5.10;;;;;;;6.33;85.96;101239.45;1669506;85;21096;-75
2022/10/10 03:21:29;;;;;;;14.40;5.90;;;;;;;6.43;85.78;101240.69;1669687;85;21118;-72
2022/10/10 03:23:56;;;;;;;8.67;5.17;;;;;;;6.53;85.41;101241.91;1669397;85;21031;-72
2022/10/10 03:26:24;;;;;;;13.27;5.67;;;;;;;6.60;85.24;101235.80;1669353;85;21055;-73
2022/10/10 03:28:51;;;;;;;10.53;5.00;;;;;;;6.66;85.08;101237.91;1669473;85;21054;-74
2022/10/10 03:31:18;;;;;;;11.83;5.80;;;;;;;6.74;84.83;101235.25;1669512;85;21533;-75
2022/10/10 03:33:46;;;;;;;10.60;4.97;;;;;;;6.79;84.71;101230.88;1669351;85;21163;-72
2022/10/10 03:36:13;;;;;;;11.50;5.17;;;;;;;6.85;84.54;101229.52;1669374;85;21028;-75
2022/10/10 03:38:40;;;;;;;9.43;5.33;;;;;;;6.88;84.33;101220.81;1669597;85;21490;-72
2022/10/10 03:41:08;;;;;;;11.47;5.33;;;;;;;6.93;84.15;101213.81;1669736;85;21036;-72
2022/10/10 03:43:35;;;;;;;11.83;5.77;;;;;;;6.94;83.98;101216.84;1669535;85;21020;-72
2022/10/10 03:46:02;;;;;;;11.17;5.53;;;;;;;6.95;83.80;101213.78;1669393;85;21985;-72
2022/10/10 03:48:28;;;;;;;9.27;5.27;;;;;;;6.95;83.78;101209.43;1669297;85;21059;-74
2022/10/10 03:50:56;;;;;;;10.07;5.53;;;;;;;6.96;83.66;101208.58;1669653;85;21043;-71
2022/10/10 03:53:23;;;;;;;11.10;5.30;;;;;;;6.96;83.52;101203.36;1669350;85;21040;-75
2022/10/10 03:55:52;;;;;;;9.80;6.77;;;;;;;6.97;83.36;101200.31;1669560;85;21083;-72
2022/10/10 03:58:19;;;;;;;12.37;5.80;;;;;;;6.96;83.34;101201.20;1648476;86;21247;-75
2022/10/10 04:00:56;;;;;;;11.27;5.80;;;;;;;6.95;83.28;101195.55;1669558;85;21036;-74
2022/10/10 04:03:24;;;;;;;10.30;5.83;;;;;;;6.94;83.22;101193.38;1629440;86;20901;-72
2022/10/10 04:05:52;;;;;;;12.87;6.23;;;;;;;6.93;83.12;101190.36;1630229;86;21028;-72
2022/10/10 04:08:20;;;;;;;12.60;5.87;;;;;;;6.93;83.18;101192.52;1630090;86;21541;-71
2022/10/10 04:10:52;;;;;;;12.33;7.00;;;;;;;6.95;83.21;101191.63;1630031;86;22145;-72
2022/10/10 04:13:21;;;;;;;12.37;7.70;;;;;;;6.95;83.09;101185.12;1630080;86;21053;-72
2022/10/10 04:15:54;;;;;;;13.07;7.30;;;;;;;6.93;83.07;101189.91;1630034;86;21066;-72
2022/10/10 04:18:22;;;;;;;16.03;7.87;;;;;;;6.95;83.18;101192.49;1630205;86;22094;-75
2022/10/10 04:20:49;;;;;;;10.37;7.00;;;;;;;6.93;83.00;101182.09;1630095;86;21057;-72
2022/10/10 04:23:16;;;;;;;14.57;8.07;;;;;;;6.91;82.81;101179.94;1630262;86;21136;-72
2022/10/10 04:25:44;;;;;;;14.80;7.40;;;;;;;6.89;82.80;101173.01;1630011;86;21057;-74
2022/10/10 04:28:13;;;;;;;13.20;7.63;;;;;;;6.88;82.73;101179.11;1630232;86;21045;-74
2022/10/10 04:30:40;;;;;;;13.93;8.30;;;;;;;6.82;82.41;101176.13;1630010;86;21095;-74
2022/10/10 04:33:08;;;;;;;12.77;7.07;;;;;;;6.74;82.25;101166.66;1630392;86;21053;-76
2022/10/10 04:35:35;;;;;;;13.47;7.93;;;;;;;6.66;82.16;101158.45;1629936;86;21238;-72
2022/10/10 04:38:02;;;;;;;13.47;8.77;;;;;;;6.58;81.88;101162.86;1630111;86;21492;-72
2022/10/10 04:40:29;;;;;;;12.90;7.97;;;;;;;6.51;82.14;101157.71;1630054;86;21558;-75
2022/10/10 04:42:57;;;;;;;12.70;8.40;;;;;;;6.42;82.01;101155.60;1630072;86;21054;-72
2022/10/10 04:45:25;;;;;;;14.27;7.97;;;;;;;6.31;81.80;101152.22;1629974;86;21113;-72
2022/10/10 04:47:54;;;;;;;15.03;9.23;;;;;;;6.19;81.61;101151.87;1653806;85;21155;-74
2022/10/10 04:50:22;;;;;;;14.70;8.47;;;;;;;6.11;81.87;101144.55;1657396;84;21034;-71
2022/10/10 04:52:49;;;;;;;12.23;8.00;;;;;;;6.01;81.82;101142.47;1657611;85;21022;-71
2022/10/10 04:55:17;;;;;;;11.90;7.67;;;;;;;5.91;81.57;101139.89;1657710;84;21009;-75
2022/10/10 04:57:44;;;;;;;12.40;8.90;;;;;;;5.80;81.42;101148.62;1656860;84;21060;-72
2022/10/10 05:00:12;;;;;;;14.53;7.37;;;;;;;5.71;81.58;101145.19;1657510;85;21524;-71
2022/10/10 05:02:40;;;;;;;12.60;8.47;;;;;;;5.63;81.75;101140.48;1657426;85;21576;-73
2022/10/10 05:05:08;;;;;;;12.67;8.50;;;;;;;5.55;81.66;101132.27;1657548;84;21026;-72
2022/10/10 05:07:35;;;;;;;15.60;8.57;;;;;;;5.49;82.01;101125.80;1657744;84;21492;-71
2022/10/10 05:10:02;;;;;;;15.47;9.33;;;;;;;5.46;82.40;101126.23;1657585;85;21041;-73
2022/10/10 05:12:30;;;;;;;15.27;8.73;;;;;;;5.46;82.87;101127.53;1657481;84;21158;-76
2022/10/10 05:14:57;;;;;;;13.53;9.47;;;;;;;5.48;83.37;101128.40;1657442;85;21611;-73
2022/10/10 05:17:24;;;;;;;16.17;9.60;;;;;;;5.52;83.65;101127.09;1657841;85;21105;-71
2022/10/10 05:19:52;;;;;;;18.33;9.93;;;;;;;5.60;84.02;101123.16;1657544;84;21068;-72
2022/10/10 05:22:19;;;;;;;15.77;9.80;;;;;;;5.67;84.02;101124.84;1657844;85;21053;-75
2022/10/10 05:24:46;;;;;;;15.00;9.63;;;;;;;5.71;84.15;101123.08;1657545;84;21959;-72
2022/10/10 05:27:13;;;;;;;15.33;9.50;;;;;;;5.73;83.84;101120.89;1657412;84;20922;-71
2022/10/10 05:29:43;;;;;;;17.33;10.13;;;;;;;5.80;84.35;101119.14;1657502;85;20998;-72
2022/10/10 05:32:10;;;;;;;21.87;10.10;;;;;;;5.90;84.53;101116.03;1657651;84;21053;-76
2022/10/10 05:34:38;;;;;;;15.70;9.33;;;;;;;5.97;84.48;101110.81;1657409;85;21053;-72
2022/10/10 05:37:05;;;;;;;15.40;9.27;;;;;;;6.02;84.32;101108.20;1657511;85;21148;-71
2022/10/10 05:39:32;;;;;;;14.20;9.00;;;;;;;6.02;83.78;101109.05;1657460;85;21524;-73
2022/10/10 05:41:59;;;;;;;13.20;9.13;;;;;;;5.97;83.49;101106.91;1657541;85;21040;-73
2022/10/10 05:44:26;;;;;;;16.20;10.00;;;;;;;5.94;83.31;101106.94;1657473;85;21065;-72
2022/10/10 05:46:53;;;;;;;14.73;8.80;;;;;;;5.91;83.47;101106.93;1661960;84;21041;-76
2022/10/10 05:49:20;;;;;;;15.23;9.73;;;;;;;5.87;83.12;101100.00;1693289;84;21075;-71
2022/10/10 05:51:48;;;;;;;15.63;9.37;;;;;;;5.84;83.24;101095.27;1699512;84;21024;-72
2022/10/10 05:54:15;;;;;;;15.53;8.57;;;;;;;5.80;83.43;101091.38;1699561;84;21008;-76
2022/10/10 05:56:42;;;;;;;11.30;8.70;;;;;;;5.83;83.77;101087.91;1699635;84;21508;-72
2022/10/10 05:59:09;;;;;;;15.80;9.57;;;;;;;5.85;84.04;101081.37;1699536;84;21095;-72
2022/10/10 06:01:36;;;;;;;16.33;9.97;;;;;;;5.87;84.05;101083.09;1699704;84;21131;-75
2022/10/10 06:04:04;;;;;;;14.33;8.97;;;;;;;5.87;84.08;101083.09;1673463;84;21050;-75
2022/10/10 06:06:31;;;;;;;16.90;10.20;;;;;;;5.91;84.16;101080.05;1667485;84;21054;-78
2022/10/10 06:08:58;;;;;;;17.10;9.40;;;;;;;5.96;84.46;101081.78;1667901;84;21082;-70
2022/10/10 06:11:26;;;;;;;16.73;9.97;;;;;;;6.03;84.73;101076.08;1667614;84;21508;-70
2022/10/10 06:13:53;;;;;;;17.27;10.00;;;;;;;6.11;84.83;101070.38;1668197;84;21199;-70
2022/10/10 06:16:26;;;;;;;15.20;9.43;;;;;;;6.15;84.82;101070.80;1676109;84;21540;-71
2022/10/10 06:18:56;;;;;;;21.20;11.13;;;;;;;6.23;85.00;101069.41;1674278;84;21350;-70
2022/10/10 06:21:23;;;;;;;17.20;9.73;;;;;;;6.31;84.93;101076.72;1667577;84;21058;-71
2022/10/10 06:23:51;;;;;;;16.10;10.23;;;;;;;6.39;85.02;101078.81;1667947;84;21037;-73
2022/10/10 06:26:18;;;;;;;19.47;10.10;;;;;;;6.47;85.04;101075.70;1675246;84;21161;-71
2022/10/10 06:28:45;;;;;;;17.70;11.30;;;;;;;6.55;85.02;101075.64;1685272;84;21047;-71
2022/10/10 06:31:13;;;;;;;17.53;9.83;;;;;;;6.62;84.93;101072.52;1688119;84;21107;-71
2022/10/10 06:33:44;;;;;;;21.90;11.10;;;;;;;6.68;84.88;101067.28;1689710;84;21036;-72
2022/10/10 06:36:13;;;;;;;17.87;11.27;;;;;;;6.73;84.81;101071.97;1689588;84;21353;-71
2022/10/10 06:38:43;;;;;;;17.40;10.87;;;;;;;6.81;84.90;101064.94;1689387;84;21140;-70
2022/10/10 06:41:11;;;;;;;17.17;10.38;;;;;;;6.91;85.01;101066.57;1689454;84;21052;-70
2022/10/10 06:43:40;;;;;;;23.77;13.97;;;;;;;7.01;84.97;101065.16;1689318;84;21051;-70
2022/10/10 06:46:08;;;;;;;21.53;11.47;;;;;;;7.10;84.94;101068.53;1689566;84;21451;-70
2022/10/10 06:48:35;;;;;;;18.53;11.37;;;;;;;7.20;84.75;101072.31;1689859;84;21064;-70
2022/10/10 06:51:06;;;;;;;18.07;11.47;;;;;;;7.28;84.58;101067.42;1690004;84;21136;-70
2022/10/10 06:53:33;;;;;;;17.80;10.63;;;;;;;7.37;84.64;101071.23;1690078;84;21044;-74
2022/10/10 06:56:01;;;;;;;15.63;10.13;;;;;;;7.45;84.40;101071.11;1688065;84;20967;-75
2022/10/10 06:58:29;;;;;;;15.43;10.03;;;;;;;7.54;84.30;101071.01;1688641;84;21562;-71
2022/10/10 07:01:00;;;;;;;19.33;9.63;;;;;;;7.64;84.48;101068.26;1689226;84;21051;-72
2022/10/10 07:03:29;;;;;;;16.67;9.93;;;;;;;7.72;84.35;101063.80;1687995;84;21146;-73
2022/10/10 07:06:00;;;;;;;15.20;9.83;;;;;;;7.81;84.16;101063.65;1685070;84;21057;-72
2022/10/10 07:08:27;;;;;;;16.12;9.00;;;;;;;7.90;84.15;101060.03;1686131;84;27504;-71
2022/10/10 07:10:55;;;;;;;14.43;9.50;;;;;;;7.98;84.18;101055.55;1687253;84;21024;-71
2022/10/10 07:13:22;;;;;;;13.17;8.93;;;;;;;8.05;84.08;101055.44;1686899;84;21705;-71
2022/10/10 07:15:49;;;;;;;14.07;8.80;;;;;;;8.16;83.95;101052.66;1686532;84;21151;-72
2022/10/10 07:18:18;;;;;;;13.07;8.27;;;;;;;8.25;83.85;101051.64;1689105;84;21089;-72
2022/10/10 07:20:45;;;;;;;14.50;8.17;;;;;;;8.34;83.67;101055.84;1688864;84;21071;-71
2022/10/10 07:23:13;;;;;;;15.63;8.90;;;;;;;8.42;83.74;101049.62;1686233;84;20960;-71
2022/10/10 07:26:03;;;;;;;13.30;8.43;;;;;;;8.53;83.62;101059.02;1689482;84;21083;-71
2022/10/10 07:28:31;;;;;;;12.98;7.85;;;;;;;8.63;83.58;101058.83;1608782;87;21494;-71
2022/10/10 07:31:05;;;;;;;14.97;8.10;;;;;;;8.74;83.48;101052.10;1608772;87;21078;-71
2022/10/10 07:33:43;;;;;;;12.90;8.33;;;;;;;8.84;83.43;101051.05;1609268;87;21599;-72
2022/10/10 07:36:10;;;;;;;10.97;7.00;;;;;;;8.97;83.37;101053.41;1608975;87;21042;-71
2022/10/10 07:38:38;;;;;;;20.37;8.27;;;;;;;9.08;83.21;101049.67;1608882;87;21097;-73
2022/10/10 07:41:12;;;;;;;11.23;7.87;;;;;;;9.19;82.86;101043.37;1608839;87;21964;-73
2022/10/10 07:43:40;;;;;;;11.00;7.07;;;;;;;9.28;82.83;101040.09;1616512;87;21058;-71
2022/10/10 07:46:17;;;;;;;14.37;6.90;;;;;;;9.41;82.80;101035.47;1621035;87;21082;-71
2022/10/10 07:48:44;;;;;;;13.23;7.50;;;;;;;9.54;82.86;101040.84;1626794;87;21083;-71
2022/10/10 07:51:12;;;;;;;13.57;7.80;;;;;;;9.69;82.85;101037.02;1621299;87;21553;-71
2022/10/10 07:53:40;;;;;;;13.00;7.53;;;;;;;9.83;82.69;101030.14;1624698;87;21137;-72
2022/10/10 07:56:09;;;;;;;12.10;7.07;;;;;;;9.95;82.32;101028.55;1623268;87;22550;-71
2022/10/10 07:58:36;;;;;;;11.50;6.50;;;;;;;10.08;82.13;101026.47;1635679;84;21065;-76
2022/10/10 08:01:07;;;;;;;12.10;6.80;;;;;;;10.23;81.97;101024.80;1679671;84;21136;-71
2022/10/10 08:03:35;;;;;;;12.37;7.03;;;;;;;10.38;81.88;101029.25;1680043;84;21531;-71
2022/10/10 08:06:06;;;;;;;9.97;6.60;;;;;;;10.54;81.56;101030.57;1679612;84;21056;-72
2022/10/10 08:08:33;;;;;;;11.57;7.07;;;;;;;10.67;81.15;101028.48;1680013;84;21046;-72
2022/10/10 08:11:03;;;;;;;9.97;6.27;;;;;;;10.78;80.83;101029.05;1679449;84;21066;-73
2022/10/10 08:13:30;;;;;;;11.20;6.00;;;;;;;10.92;80.67;101028.66;1658797;85;21475;-72
2022/10/10 08:15:56;;;;;;;11.83;6.33;;;;;;;11.06;80.38;101026.50;1679784;84;21076;-74
2022/10/10 08:18:23;;;;;;;14.47;6.60;;;;;;;11.21;80.30;101019.08;1679899;84;21825;-71
2022/10/10 08:21:04;;;;;;;14.53;6.70;;;;;;;11.38;80.03;101019.42;1679744;84;21054;-71
2022/10/10 08:23:31;;;;;;;11.95;6.85;;;;;;;11.54;79.89;101021.98;1679033;84;21058;-71
2022/10/10 08:26:05;;;;;;;9.55;6.70;;;;;;;11.70;79.61;101012.33;1679673;84;21065;-71
2022/10/10 08:28:33;;;;;;;13.10;6.28;;;;;;;11.85;79.16;101017.06;1667627;84;21079;-73
2022/10/10 08:31:10;;;;;;;11.55;6.65;;;;;;;12.01;78.94;101009.13;1666488;84;21366;-76
2022/10/10 08:33:39;;;;;;;11.43;6.80;;;;;;;12.19;78.52;101012.03;1642804;85;21104;-71
2022/10/10 08:36:10;;;;;;;14.03;6.40;;;;;;;12.38;78.31;101009.64;1690232;84;21035;-75
2022/10/10 08:38:36;;;;;;;10.85;6.83;;;;;;;12.61;78.37;101007.50;1700749;82;21034;-73
2022/10/10 08:41:12;;;;;;;12.55;6.08;;;;;;;12.78;77.46;101005.61;1700572;82;21086;-71
2022/10/10 08:43:46;;;;;;;8.68;5.87;;;;;;;12.86;77.48;101007.04;1700208;82;21135;-74
2022/10/10 08:46:51;;;;;;;9.68;6.45;;;;;;;13.01;77.24;101001.66;1699094;83;21054;-73
2022/10/10 08:49:35;;;;;;;12.37;7.10;;;;;;;13.11;76.95;100997.77;1700562;82;21067;-74
2022/10/10 08:52:31;;;;;;;11.50;6.35;;;;;;;13.21;76.63;100996.95;1699863;83;21532;-71
2022/10/10 08:55:01;;;;;;;12.25;7.05;;;;;;;13.30;76.42;100996.64;1700437;83;21082;-73
2022/10/10 08:57:46;;;;;;;;;;;;;;;13.44;76.13;100995.22;1703236;82;21060;-75
2022/10/10 09:00:17;;;;;;;11.73;6.65;;;;;;;13.49;74.89;100995.91;1700731;83;20167;-77
2022/10/10 09:02:56;;;;;;;13.93;7.95;;;;;;;13.48;74.92;100989.78;1700609;83;21057;-76
2022/10/10 09:05:53;;;;;;;14.60;7.00;;;;;;;13.56;74.78;100986.39;1701032;82;21086;-74
2022/10/10 09:08:34;;;;;;;11.50;6.92;;;;;;;13.61;74.55;100980.48;1699633;83;22064;-71
2022/10/10 09:11:28;;;;;;;15.70;7.08;;;;;;;13.70;74.06;100978.39;1687146;84;21124;-74
2022/10/10 09:14:28;;;;;;;12.20;6.37;;;;;;;13.77;74.00;100974.14;1698497;82;21477;-72
2022/10/10 09:17:01;;;;;;;;;;;;;;;13.84;73.83;100970.77;1702393;83;21046;-77
2022/10/10 09:19:50;;;;;;;12.93;6.65;;;;;;;13.86;73.06;100965.45;1698427;82;20396;-72
2022/10/10 09:22:22;;;;;;;10.10;5.87;;;;;;;13.90;73.07;100967.88;1698669;82;21023;-76
2022/10/10 09:25:16;;;;;;;13.18;6.58;;;;;;;13.94;72.73;100967.28;1646170;85;21225;-72
2022/10/10 09:27:48;;;;;;;10.88;6.30;;;;;;;13.96;72.73;100963.66;1669131;84;21468;-73
2022/10/10 09:30:18;;;;;;;11.73;5.92;;;;;;;14.08;72.82;100956.16;1692788;83;21013;-72
2022/10/10 09:32:54;;;;;;;11.55;6.10;;;;;;;14.19;72.52;100957.43;1667164;84;21030;-72
2022/10/10 09:35:26;;;;;;;12.60;6.92;;;;;;;14.27;72.48;100946.09;1683931;83;21515;-73
2022/10/10 09:38:16;;;;;;;13.83;6.87;;;;;;;14.38;71.89;100946.94;1666553;84;21043;-76
2022/10/10 09:40:48;;;;;;;16.23;6.95;;;;;;;14.48;71.76;100945.59;1680666;83;21056;-73
2022/10/10 09:43:18;;;;;;;11.48;6.42;;;;;;;14.55;71.47;100947.98;1666835;84;21002;-72
2022/10/10 09:45:59;;;;;;;13.28;7.05;;;;;;;14.70;71.57;100942.88;1684284;83;21462;-73
2022/10/10 09:48:42;;;;;;;16.17;10.63;;;;;;;14.87;71.49;100938.14;1684230;83;21069;-72
2022/10/10 09:51:16;;;;;;;13.20;7.12;;;;;;;15.12;71.31;100940.48;1684917;83;21138;-72
2022/10/10 09:53:46;;;;;;;14.83;6.83;;;;;;;15.43;71.18;100928.45;1684635;83;21476;-72
2022/10/10 09:56:25;;;;;;;;;;;;;;;15.67;70.91;100925.06;1669308;84;21058;-72
2022/10/10 09:58:54;;;;;;;11.10;5.90;;;;;;;15.83;69.89;100929.16;1667248;84;20176;-72
2022/10/10 10:01:25;;;;;;;12.78;5.60;;;;;;;15.83;69.45;100926.05;1684537;83;21028;-72
2022/10/10 10:04:16;;;;;;;13.65;6.40;;;;;;;15.87;69.19;100923.25;1666911;84;21093;-72
2022/10/10 10:06:48;;;;;;;65.97;21.87;;;;;;;15.82;68.71;100922.14;1684360;83;21478;-73
2022/10/10 10:09:21;;;;;;;10.13;5.35;;;;;;;15.77;68.43;100914.94;1667174;84;21554;-73
2022/10/10 10:11:55;;;;;;;9.33;5.28;;;;;;;15.71;68.17;100905.97;1684466;83;21002;-72
2022/10/10 10:14:32;;;;;;;8.28;4.87;;;;;;;15.66;67.81;100898.27;1666888;84;21046;-72
2022/10/10 10:17:12;;;;;;;10.35;5.37;;;;;;;15.66;67.81;100898.27;1684525;83;21116;-72
2022/10/10 10:19:42;;;;;;;31.27;10.23;;;;;;;15.64;67.63;100896.62;1666736;84;21556;-72
2022/10/10 10:22:36;;;;;;;11.95;5.12;;;;;;;15.60;67.52;100901.19;1685313;83;21034;-79
2022/10/10 10:25:31;;;;;;;14.28;5.47;;;;;;;15.60;67.76;100894.14;1684612;83;22124;-72
2022/10/10 10:28:15;;;;;;;9.35;4.87;;;;;;;15.62;67.66;100905.94;1633571;86;21059;-71
2022/10/10 10:30:44;;;;;;;7.97;5.30;;;;;;;15.62;67.32;100898.86;1623736;86;21164;-80
2022/10/10 10:33:34;;;;;;;17.02;10.75;;;;;;;15.71;67.08;100899.37;1643536;85;21027;-74
2022/10/10 10:36:19;;;;;;;12.30;6.60;;;;;;;15.77;67.06;100895.12;1666673;84;21069;-72
2022/10/10 10:38:51;;;;;;;12.88;5.67;;;;;;;15.93;67.17;100890.73;1666714;84;21046;-72
2022/10/10 10:41:28;;;;;;;12.10;4.62;;;;;;;16.09;66.69;100885.52;1666874;84;21015;-74
2022/10/10 10:44:06;;;;;;;17.90;7.00;;;;;;;16.22;66.63;100882.61;1666823;84;22317;-75
2022/10/10 10:47:03;;;;;;;10.82;4.70;;;;;;;16.41;66.46;100881.17;1643697;85;21070;-75
2022/10/10 10:49:37;;;;;;;8.13;4.28;;;;;;;16.57;66.21;100879.88;1664576;84;21075;-73
2022/10/10 10:52:27;;;;;;;9.15;5.40;;;;;;;16.80;65.79;100876.47;1643728;85;21046;-73
2022/10/10 10:55:09;;;;;;;;;;;;;;;17.05;65.53;100870.66;1669710;84;21114;-74
2022/10/10 10:58:05;;;;;;;11.95;5.75;;;;;;;17.24;64.73;100865.17;1666825;84;21207;-72
2022/10/10 11:00:37;;;;;;;8.95;4.97;;;;;;;17.29;64.77;100865.73;1667086;84;21058;-76
2022/10/10 11:03:19;;;;;;;17.87;7.10;;;;;;;17.28;64.39;100848.14;1672735;83;21036;-74
2022/10/10 11:06:19;;;;;;;13.03;7.20;;;;;;;17.26;64.15;100849.55;1649376;85;21513;-72
2022/10/10 11:09:13;;;;;;;13.55;7.17;;;;;;;17.22;64.08;100847.18;1649416;85;21034;-74
2022/10/10 11:12:00;;;;;;;19.50;6.92;;;;;;;17.17;63.86;100843.45;1678337;84;22108;-74
2022/10/10 11:14:57;;;;;;;14.40;5.22;;;;;;;17.13;63.93;100838.81;1702405;83;21057;-73
2022/10/10 11:17:38;;;;;;;8.53;5.40;;;;;;;17.08;63.72;100831.60;1690234;83;21034;-73
2022/10/10 11:20:23;;;;;;;16.85;5.20;;;;;;;17.04;63.63;100830.53;1702948;83;21042;-73
2022/10/10 11:23:07;;;;;;;7.95;4.90;;;;;;;16.99;63.55;100836.11;1703164;83;21027;-74
2022/10/10 11:25:46;;;;;;;7.67;5.08;;;;;;;16.95;63.57;100832.76;1686964;83;21077;-72
2022/10/10 11:28:25;;;;;;;8.18;4.62;;;;;;;16.90;63.40;100828.66;1690814;83;21025;-73
2022/10/10 11:31:07;;;;;;;8.78;4.83;;;;;;;16.81;63.30;100827.87;1683111;84;21025;-72
2022/10/10 11:33:41;;;;;;;14.55;4.80;;;;;;;16.73;63.34;100818.52;1682368;84;21010;-73
2022/10/10 11:36:17;;;;;;;11.45;4.45;;;;;;;16.69;63.35;100814.35;1664755;84;21197;-72
2022/10/10 11:38:55;;;;;;;7.53;4.97;;;;;;;16.64;63.37;100807.61;1683105;84;21158;-72
2022/10/10 11:41:46;;;;;;;7.25;4.78;;;;;;;16.59;63.29;100806.53;1628862;86;21556;-75
2022/10/10 11:44:23;;;;;;;9.00;5.28;;;;;;;16.55;63.59;100802.84;1634372;85;21096;-72
2022/10/10 11:47:04;;;;;;;10.58;5.05;;;;;;;16.50;63.52;100798.64;1681398;84;21491;-73
2022/10/10 11:49:37;;;;;;;10.63;5.40;;;;;;;16.53;63.57;100798.09;1671154;84;21597;-73
2022/10/10 11:52:18;;;;;;;9.25;5.00;;;;;;;16.50;63.59;100797.31;1683107;84;21148;-72
2022/10/10 11:55:06;;;;;;;11.40;5.50;;;;;;;16.50;63.61;100796.47;1663146;85;21625;-73